Time;durP1;ratioP1;P1;durP2;ratioP2;P2;SDS_P1;SDS_P2;PMS_P1;PMS_P2;Temp;Humidity;BMP_temperature;BMP_pressure;BME280_temperature;BME280_humidity;BME280_pressure;Samples;Min_cycle;Max_cycle;Signal;HPM_P1;HPM_P2
2022/06/19 00:00:34;;;;;;;0.70;0.60;;;;;;;-148.56;100.00;61375.16;5009547;28;21124;-32
2022/06/19 00:03:01;;;;;;;2.88;0.73;;;;;;;-148.56;100.00;61375.16;5012023;28;20024;-30
2022/06/19 00:05:27;;;;;;;1.40;0.80;;;;;;;-148.56;100.00;61375.16;5011903;28;20792;-32
2022/06/19 00:07:52;;;;;;;5.90;0.80;;;;;;;-148.56;100.00;61375.16;5006656;28;20026;-31
2022/06/19 00:10:17;;;;;;;0.95;0.50;;;;;;;-148.56;100.00;61375.16;5012247;28;20033;-29
2022/06/19 00:12:43;;;;;;;0.85;0.73;;;;;;;-148.56;100.00;61375.16;5014933;28;20500;-31
2022/06/19 00:15:09;;;;;;;1.58;0.70;;;;;;;-148.56;100.00;61375.16;5007221;28;20459;-35
2022/06/19 00:17:34;;;;;;;1.17;0.60;;;;;;;-148.56;100.00;61375.16;5007166;28;20032;-31
2022/06/19 00:19:59;;;;;;;1.15;0.57;;;;;;;-148.56;100.00;61375.16;5009556;28;20024;-32
2022/06/19 00:22:25;;;;;;;1.60;0.80;;;;;;;-148.56;100.00;61375.16;5007950;28;20448;-33
2022/06/19 00:24:50;;;;;;;1.88;0.93;;;;;;;-148.56;100.00;61375.16;5009035;28;20091;-30
2022/06/19 00:27:16;;;;;;;0.95;0.60;;;;;;;-148.56;100.00;61375.16;5006538;28;20037;-30
2022/06/19 00:29:41;;;;;;;1.73;0.80;;;;;;;-148.56;100.00;61375.16;5009635;28;20049;-31
2022/06/19 00:32:07;;;;;;;0.70;0.55;;;;;;;-148.56;100.00;61375.16;5010325;28;20037;-29
2022/06/19 00:34:34;;;;;;;0.88;0.65;;;;;;;-148.56;100.00;61375.16;5009881;28;20029;-30
2022/06/19 00:37:01;;;;;;;1.52;0.60;;;;;;;-148.56;100.00;61375.16;5013954;28;20040;-32
2022/06/19 00:39:26;;;;;;;0.73;0.52;;;;;;;-148.56;100.00;61375.16;5010301;28;20021;-30
2022/06/19 00:41:52;;;;;;;0.73;0.60;;;;;;;-148.56;100.00;61375.16;5008778;28;20967;-36
2022/06/19 00:44:17;;;;;;;0.93;0.65;;;;;;;-148.56;100.00;61375.16;5006343;28;20086;-31
2022/06/19 00:46:53;;;;;;;0.57;0.50;;;;;;;-148.56;100.00;61375.16;5009643;28;20037;-32
2022/06/19 00:49:19;;;;;;;1.00;0.70;;;;;;;-148.56;100.00;61375.16;5012721;28;20033;-31
2022/06/19 00:51:44;;;;;;;1.25;0.60;;;;;;;-148.56;100.00;61375.16;5011419;28;20752;-32
2022/06/19 00:54:11;;;;;;;1.10;0.75;;;;;;;-148.56;100.00;61375.16;5012293;28;20033;-30
2022/06/19 00:56:36;;;;;;;0.93;0.60;;;;;;;-148.56;100.00;61375.16;5009024;28;20030;-32
2022/06/19 00:59:02;;;;;;;1.08;0.68;;;;;;;-148.56;100.00;61375.16;5008706;28;20080;-28
2022/06/19 01:01:27;;;;;;;0.77;0.52;;;;;;;-148.56;100.00;61375.16;4993907;28;20571;-29
2022/06/19 01:03:55;;;;;;;1.35;0.80;;;;;;;-148.56;100.00;61375.16;5011098;28;20025;-31
2022/06/19 01:06:21;;;;;;;0.77;0.50;;;;;;;-148.56;100.00;61375.16;5008596;28;20869;-30
2022/06/19 01:08:47;;;;;;;1.00;0.40;;;;;;;-148.56;100.00;61375.16;4997688;28;20075;-28
2022/06/19 01:11:13;;;;;;;1.13;0.60;;;;;;;-148.56;100.00;61375.16;5006998;28;20494;-30
2022/06/19 01:13:38;;;;;;;1.10;0.68;;;;;;;-148.56;100.00;61375.16;5008117;28;20044;-31
2022/06/19 01:16:04;;;;;;;1.35;0.60;;;;;;;-148.56;100.00;61375.16;5007972;28;20029;-29
2022/06/19 01:18:29;;;;;;;1.58;0.70;;;;;;;-148.56;100.00;61375.16;5004217;28;20090;-28
2022/06/19 01:20:57;;;;;;;1.15;0.80;;;;;;;-148.56;100.00;61375.16;5001632;28;20025;-29
2022/06/19 01:23:33;;;;;;;1.30;0.60;;;;;;;-148.56;100.00;61375.16;5007173;28;20124;-31
2022/06/19 01:25:59;;;;;;;1.45;0.70;;;;;;;-148.56;100.00;61375.16;4992397;28;20056;-30
2022/06/19 01:28:55;;;;;;;1.55;0.70;;;;;;;-148.56;100.00;61375.16;5012255;28;20079;-29
2022/06/19 01:31:35;;;;;;;0.80;0.57;;;;;;;-148.56;100.00;61375.16;5007429;28;20041;-29
2022/06/19 01:34:26;;;;;;;1.80;0.75;;;;;;;-148.56;100.00;61375.16;5007441;28;20025;-29
2022/06/19 01:36:52;;;;;;;1.33;0.65;;;;;;;-148.56;100.00;61375.16;5007236;28;20098;-33
2022/06/19 01:39:17;;;;;;;2.17;0.75;;;;;;;-148.56;100.00;61375.16;5006554;28;20504;-33
2022/06/19 01:41:43;;;;;;;1.20;0.80;;;;;;;-148.56;100.00;61375.16;5008794;28;20041;-28
2022/06/19 01:44:08;;;;;;;1.30;0.80;;;;;;;-148.56;100.00;61375.16;5005602;28;20080;-32
2022/06/19 01:46:33;;;;;;;0.93;0.73;;;;;;;-148.56;100.00;61375.16;5024592;28;20033;-29
2022/06/19 01:48:59;;;;;;;1.85;0.65;;;;;;;-148.56;100.00;61375.16;5010815;28;20025;-31
2022/06/19 01:51:24;;;;;;;1.13;0.70;;;;;;;-148.56;100.00;61375.16;5007610;28;20033;-31
2022/06/19 01:54:08;;;;;;;1.35;0.60;;;;;;;-148.56;100.00;61375.16;5010355;28;20036;-33
2022/06/19 01:56:33;;;;;;;0.50;0.50;;;;;;;-148.56;100.00;61375.16;4993763;28;20025;-31
2022/06/19 01:59:03;;;;;;;0.40;0.40;;;;;;;-148.56;100.00;61375.16;5011789;28;20029;-29
2022/06/19 02:01:29;;;;;;;1.33;0.70;;;;;;;-148.56;100.00;61375.16;5006064;28;20739;-30
2022/06/19 02:03:56;;;;;;;0.70;0.60;;;;;;;-148.56;100.00;61375.16;5008443;28;20041;-30
2022/06/19 02:06:24;;;;;;;1.15;0.68;;;;;;;-148.56;100.00;61375.16;5009351;28;20029;-31
2022/06/19 02:08:50;;;;;;;0.88;0.88;;;;;;;-148.56;100.00;61375.16;5007084;28;20033;-32
2022/06/19 02:11:16;;;;;;;2.05;0.90;;;;;;;-148.56;100.00;61375.16;5005154;28;20798;-29
2022/06/19 02:13:41;;;;;;;0.73;0.60;;;;;;;-148.56;100.00;61375.16;5008481;28;20487;-29
2022/06/19 02:16:12;;;;;;;0.85;0.50;;;;;;;-148.56;100.00;61375.16;5005840;28;20849;-34
2022/06/19 02:18:39;;;;;;;1.13;0.57;;;;;;;-148.56;100.00;61375.16;5008307;28;20063;-30
2022/06/19 02:21:07;;;;;;;1.20;0.52;;;;;;;-148.56;100.00;61375.16;5000697;28;20048;-32
2022/06/19 02:23:34;;;;;;;1.38;0.70;;;;;;;-148.56;100.00;61375.16;5004250;28;20026;-32
2022/06/19 02:26:00;;;;;;;0.93;0.60;;;;;;;-148.56;100.00;61375.16;5004608;28;20416;-30
2022/06/19 02:28:26;;;;;;;1.55;0.80;;;;;;;-148.56;100.00;61375.16;5008370;28;20668;-32
2022/06/19 02:30:52;;;;;;;0.88;0.60;;;;;;;-148.56;100.00;61375.16;5010721;28;20044;-31
2022/06/19 02:33:18;;;;;;;0.77;0.68;;;;;;;-148.56;100.00;61375.16;5004725;28;20017;-30
2022/06/19 02:35:44;;;;;;;1.10;0.63;;;;;;;-148.56;100.00;61375.16;5004995;28;20041;-34
2022/06/19 02:38:13;;;;;;;1.08;0.52;;;;;;;-148.56;100.00;61375.16;5006409;28;20014;-28
2022/06/19 02:41:04;;;;;;;2.03;0.85;;;;;;;-148.56;100.00;61375.16;5007591;28;20029;-28
2022/06/19 02:43:30;;;;;;;;;;;;;;;-148.56;100.00;61375.16;5007914;28;22003;-30
2022/06/19 02:45:56;;;;;;;1.33;0.60;;;;;;;-148.56;100.00;61375.16;5004841;28;19921;-29
2022/06/19 02:48:25;;;;;;;1.10;0.52;;;;;;;-148.56;100.00;61375.16;5004709;28;20049;-30
2022/06/19 02:50:51;;;;;;;1.13;0.70;;;;;;;-148.56;100.00;61375.16;5009210;28;20584;-31
2022/06/19 02:53:17;;;;;;;1.05;0.52;;;;;;;-148.56;100.00;61375.16;5006528;28;20037;-35
2022/06/19 02:55:42;;;;;;;1.60;0.70;;;;;;;-148.56;100.00;61375.16;5006254;28;20182;-29
2022/06/19 02:58:08;;;;;;;0.95;0.60;;;;;;;-148.56;100.00;61375.16;5009559;28;20052;-30
2022/06/19 03:00:34;;;;;;;1.60;0.80;;;;;;;-148.56;100.00;61375.16;5004703;28;20033;-29
2022/06/19 03:03:02;;;;;;;1.48;0.80;;;;;;;-148.56;100.00;61375.16;5002261;28;20041;-31
2022/06/19 03:05:28;;;;;;;1.88;0.88;;;;;;;-148.56;100.00;61375.16;5009744;28;20029;-32
2022/06/19 03:07:54;;;;;;;1.40;0.60;;;;;;;-148.56;100.00;61375.16;5007978;28;20090;-31
2022/06/19 03:10:19;;;;;;;0.80;0.57;;;;;;;-148.56;100.00;61375.16;5008276;28;20057;-32
2022/06/19 03:12:44;;;;;;;0.95;0.65;;;;;;;-148.56;100.00;61375.16;5004931;28;20044;-30
2022/06/19 03:15:11;;;;;;;0.60;0.55;;;;;;;-148.56;100.00;61375.16;5007111;28;20032;-31
2022/06/19 03:17:36;;;;;;;0.85;0.68;;;;;;;-148.56;100.00;61375.16;5002823;28;20704;-33
2022/06/19 03:20:02;;;;;;;1.15;0.73;;;;;;;-148.56;100.00;61375.16;5005552;28;20045;-31
2022/06/19 03:22:27;;;;;;;1.52;0.75;;;;;;;-148.56;100.00;61375.16;5008277;28;20029;-30
2022/06/19 03:24:53;;;;;;;1.10;0.50;;;;;;;-148.56;100.00;61375.16;5008809;28;20030;-30
2022/06/19 03:27:18;;;;;;;0.98;0.70;;;;;;;-148.56;100.00;61375.16;5011890;28;20026;-29
2022/06/19 03:29:43;;;;;;;2.25;0.65;;;;;;;-148.56;100.00;61375.16;5010080;28;20021;-35
2022/06/19 03:32:10;;;;;;;1.17;0.75;;;;;;;-148.56;100.00;61375.16;5009885;28;20463;-30
2022/06/19 03:34:35;;;;;;;1.42;0.70;;;;;;;-148.56;100.00;61375.16;5005968;28;20067;-33
2022/06/19 03:37:01;;;;;;;0.80;0.50;;;;;;;-148.56;100.00;61375.16;5009911;28;20038;-32
2022/06/19 03:39:26;;;;;;;0.50;0.50;;;;;;;-148.56;100.00;61375.16;5008673;28;20377;-32
2022/06/19 03:41:51;;;;;;;0.75;0.57;;;;;;;-148.56;100.00;61375.16;5010868;28;20022;-31
2022/06/19 03:44:17;;;;;;;0.93;0.70;;;;;;;-148.56;100.00;61375.16;5009275;28;20076;-29
2022/06/19 03:46:42;;;;;;;3.22;0.73;;;;;;;-148.56;100.00;61375.16;5009469;28;20025;-37
2022/06/19 03:49:08;;;;;;;1.15;0.60;;;;;;;-148.56;100.00;61375.16;5008379;28;20033;-31
2022/06/19 03:51:34;;;;;;;1.05;0.60;;;;;;;-148.56;100.00;61375.16;5007394;28;20556;-29
2022/06/19 03:53:59;;;;;;;1.45;0.75;;;;;;;-148.56;100.00;61375.16;5007912;28;20029;-30
2022/06/19 03:56:29;;;;;;;0.90;0.60;;;;;;;-148.56;100.00;61375.16;5009098;28;20032;-32
2022/06/19 03:58:55;;;;;;;0.95;0.60;;;;;;;-148.56;100.00;61375.16;5009347;28;20056;-33
2022/06/19 04:01:22;;;;;;;0.93;0.50;;;;;;;-148.56;100.00;61375.16;5009038;28;20037;-34
2022/06/19 04:03:50;;;;;;;0.98;0.60;;;;;;;-148.56;100.00;61375.16;5008246;28;20048;-33
2022/06/19 04:06:16;;;;;;;1.33;0.70;;;;;;;-148.56;100.00;61375.16;5006620;28;20021;-32
2022/06/19 04:08:44;;;;;;;0.60;0.60;;;;;;;-148.56;100.00;61375.16;5005934;28;20041;-34
2022/06/19 04:11:10;;;;;;;0.57;0.50;;;;;;;-148.56;100.00;61375.16;5009535;28;20032;-30
2022/06/19 04:13:35;;;;;;;1.23;0.73;;;;;;;-148.56;100.00;61375.16;5009778;28;20970;-31
2022/06/19 04:16:01;;;;;;;0.98;0.60;;;;;;;-148.56;100.00;61375.16;5011359;28;20859;-32
2022/06/19 04:18:29;;;;;;;0.52;0.40;;;;;;;-148.56;100.00;61375.16;5008661;28;20923;-34
2022/06/19 04:20:54;;;;;;;2.83;0.68;;;;;;;-148.56;100.00;61375.16;5008175;28;20092;-33
2022/06/19 04:23:20;;;;;;;1.58;0.85;;;;;;;-148.56;100.00;61375.16;5008944;28;20796;-31
2022/06/19 04:25:45;;;;;;;0.98;0.47;;;;;;;-148.56;100.00;61375.16;5008110;28;20041;-33
2022/06/19 04:28:10;;;;;;;1.60;0.77;;;;;;;-148.56;100.00;61375.16;5011705;28;20057;-30
2022/06/19 04:30:37;;;;;;;1.15;0.75;;;;;;;-148.56;100.00;61375.16;5009245;28;20076;-35
2022/06/19 04:33:03;;;;;;;1.05;0.68;;;;;;;-148.56;100.00;61375.16;5008941;28;20558;-38
2022/06/19 04:35:29;;;;;;;2.53;0.60;;;;;;;-148.56;100.00;61375.16;5011127;28;20025;-35
2022/06/19 04:37:54;;;;;;;1.30;0.70;;;;;;;-148.56;100.00;61375.16;5011253;28;20030;-30
2022/06/19 04:40:19;;;;;;;1.92;0.70;;;;;;;-148.56;100.00;61375.16;5007139;28;20842;-31
2022/06/19 04:42:45;;;;;;;1.63;0.73;;;;;;;-148.56;100.00;61375.16;5008132;28;20017;-33
2022/06/19 04:45:10;;;;;;;1.10;0.70;;;;;;;-148.56;100.00;61375.16;5011914;28;20547;-31
2022/06/19 04:47:36;;;;;;;0.95;0.50;;;;;;;-148.56;100.00;61375.16;5012720;28;20210;-33
2022/06/19 04:50:01;;;;;;;1.48;0.75;;;;;;;-148.56;100.00;61375.16;5011035;28;20021;-31
2022/06/19 04:52:27;;;;;;;1.38;0.80;;;;;;;-148.56;100.00;61375.16;5008085;28;20052;-31
2022/06/19 04:54:52;;;;;;;1.48;0.50;;;;;;;-148.56;100.00;61375.16;5006897;28;20045;-30
2022/06/19 04:57:17;;;;;;;2.60;0.70;;;;;;;-148.56;100.00;61375.16;5011592;28;20022;-30
2022/06/19 04:59:43;;;;;;;0.93;0.70;;;;;;;-148.56;100.00;61375.16;5012386;28;20037;-31
2022/06/19 05:02:13;;;;;;;0.85;0.50;;;;;;;-148.56;100.00;61375.16;5010942;28;20033;-32
2022/06/19 05:04:38;;;;;;;1.45;0.73;;;;;;;-148.56;100.00;61375.16;5009810;28;20094;-31
2022/06/19 05:07:03;;;;;;;1.27;0.70;;;;;;;-148.56;100.00;61375.16;5009777;28;20026;-36
2022/06/19 05:09:29;;;;;;;0.90;0.60;;;;;;;-148.56;100.00;61375.16;5011138;28;20113;-33
2022/06/19 05:11:54;;;;;;;1.33;0.80;;;;;;;-148.56;100.00;61375.16;5007535;28;20088;-34
2022/06/19 05:14:20;;;;;;;1.40;0.80;;;;;;;-148.56;100.00;61375.16;5006326;28;20033;-34
2022/06/19 05:16:45;;;;;;;1.65;0.65;;;;;;;-148.56;100.00;61375.16;5003278;28;20033;-32
2022/06/19 05:19:11;;;;;;;2.90;0.80;;;;;;;-148.56;100.00;61375.16;5009735;28;20086;-33
2022/06/19 05:21:36;;;;;;;2.35;0.90;;;;;;;-148.56;100.00;61375.16;5003787;28;20087;-33
2022/06/19 05:24:01;;;;;;;1.20;0.70;;;;;;;-148.56;100.00;61375.16;5008166;28;20041;-33
2022/06/19 05:26:29;;;;;;;2.08;0.80;;;;;;;-148.56;100.00;61375.16;5008851;28;20255;-33
2022/06/19 05:28:55;;;;;;;0.90;0.68;;;;;;;-148.56;100.00;61375.16;5007487;28;20134;-35
2022/06/19 05:31:20;;;;;;;1.95;0.90;;;;;;;-148.56;100.00;61375.16;5008103;28;20030;-34
2022/06/19 05:33:46;;;;;;;1.90;0.75;;;;;;;-148.56;100.00;61375.16;5011138;28;20280;-33
2022/06/19 05:36:11;;;;;;;2.05;0.57;;;;;;;-148.56;100.00;61375.16;5010271;28;20040;-31
2022/06/19 05:38:37;;;;;;;3.50;0.98;;;;;;;-148.56;100.00;61375.16;5008181;28;20037;-34
2022/06/19 05:41:02;;;;;;;2.20;0.70;;;;;;;-148.56;100.00;61375.16;5010812;28;20021;-32
2022/06/19 05:43:29;;;;;;;1.65;0.82;;;;;;;-148.56;100.00;61375.16;5009681;28;20103;-34
2022/06/19 05:46:00;;;;;;;1.52;0.63;;;;;;;-148.56;100.00;61375.16;5010153;28;20021;-36
2022/06/19 05:48:25;;;;;;;2.03;0.70;;;;;;;-148.56;100.00;61375.16;5008762;28;20025;-36
2022/06/19 05:50:57;;;;;;;1.85;0.73;;;;;;;-148.56;100.00;61375.16;5006888;28;20644;-34
2022/06/19 05:53:23;;;;;;;1.05;0.90;;;;;;;-148.56;100.00;61375.16;5009878;28;20057;-37
2022/06/19 05:55:48;;;;;;;1.40;0.80;;;;;;;-148.56;100.00;61375.16;5005060;28;20029;-33
2022/06/19 05:58:13;;;;;;;3.58;0.60;;;;;;;-148.56;100.00;61375.16;5006831;28;20037;-35
2022/06/19 06:00:39;;;;;;;1.48;0.80;;;;;;;-148.56;100.00;61375.16;5011181;28;20025;-36
2022/06/19 06:03:04;;;;;;;1.92;0.90;;;;;;;-148.56;100.00;61375.16;5010484;28;20038;-35
2022/06/19 06:05:30;;;;;;;1.20;0.75;;;;;;;-148.56;100.00;61375.16;5006594;28;20019;-34
2022/06/19 06:07:55;;;;;;;2.70;1.10;;;;;;;-148.56;100.00;61375.16;5010453;28;20076;-34
2022/06/19 06:10:21;;;;;;;1.52;0.80;;;;;;;-148.56;100.00;61375.16;5011120;28;20030;-35
2022/06/19 06:12:46;;;;;;;1.95;0.98;;;;;;;-148.56;100.00;61375.16;5009075;28;20164;-34
2022/06/19 06:15:11;;;;;;;3.83;0.80;;;;;;;-148.56;100.00;61375.16;5006721;28;20025;-34
2022/06/19 06:17:37;;;;;;;1.95;1.00;;;;;;;-148.56;100.00;61375.16;5006292;28;20021;-32
2022/06/19 06:20:03;;;;;;;3.03;0.90;;;;;;;-148.56;100.00;61375.16;5004237;28;20040;-35
2022/06/19 06:22:28;;;;;;;2.38;0.90;;;;;;;-148.56;100.00;61375.16;5005579;28;20064;-31
2022/06/19 06:24:53;;;;;;;2.50;0.82;;;;;;;-148.56;100.00;61375.16;5007276;28;20463;-33
2022/06/19 06:27:20;;;;;;;2.53;0.90;;;;;;;-148.56;100.00;61375.16;5009618;28;20583;-36
2022/06/19 06:29:46;;;;;;;2.72;0.77;;;;;;;-148.56;100.00;61375.16;5007813;28;20037;-33
2022/06/19 06:32:11;;;;;;;3.05;1.00;;;;;;;-148.56;100.00;61375.16;5006597;28;20041;-34
2022/06/19 06:34:36;;;;;;;1.75;0.98;;;;;;;-148.56;100.00;61375.16;5008023;28;20042;-33
2022/06/19 06:37:02;;;;;;;1.33;0.88;;;;;;;-148.56;100.00;61375.16;5010237;28;20032;-31
2022/06/19 06:39:27;;;;;;;1.98;0.98;;;;;;;-148.56;100.00;61375.16;5004572;28;22105;-33
2022/06/19 06:41:53;;;;;;;3.15;1.05;;;;;;;-148.56;100.00;61375.16;5008307;28;20033;-30
2022/06/19 06:44:18;;;;;;;1.48;0.90;;;;;;;-148.56;100.00;61375.16;5006097;28;20091;-32
2022/06/19 06:46:43;;;;;;;2.45;0.63;;;;;;;-148.56;100.00;61375.16;5008934;28;20037;-30
2022/06/19 06:49:10;;;;;;;1.67;0.82;;;;;;;-148.56;100.00;61375.16;5009299;28;20424;-33
2022/06/19 06:51:35;;;;;;;3.97;1.23;;;;;;;-148.56;100.00;61375.16;5009323;28;20035;-34
2022/06/19 06:54:01;;;;;;;2.67;0.98;;;;;;;-148.56;100.00;61375.16;5004353;28;20053;-33
2022/06/19 06:56:31;;;;;;;2.97;0.98;;;;;;;-148.56;100.00;61375.16;4991984;28;20026;-31
2022/06/19 06:58:56;;;;;;;1.48;0.90;;;;;;;-148.56;100.00;61375.16;4996361;28;20021;-31
2022/06/19 07:01:22;;;;;;;2.50;0.90;;;;;;;-148.56;100.00;61375.16;4996675;28;20088;-31
2022/06/19 07:03:52;;;;;;;1.83;0.90;;;;;;;-148.56;100.00;61375.16;4994877;28;20033;-39
2022/06/19 07:06:17;;;;;;;2.53;0.98;;;;;;;-148.56;100.00;61375.16;4996731;28;20063;-32
2022/06/19 07:08:42;;;;;;;1.48;0.90;;;;;;;-148.56;100.00;61375.16;4998599;28;20034;-30
2022/06/19 07:11:13;;;;;;;1.13;0.63;;;;;;;-148.56;100.00;61375.16;5000284;28;20044;-30
2022/06/19 07:13:39;;;;;;;2.55;0.98;;;;;;;-148.56;100.00;61375.16;5000101;28;20033;-29
2022/06/19 07:16:04;;;;;;;1.58;0.85;;;;;;;-148.56;100.00;61375.16;5004685;28;20037;-32
2022/06/19 07:18:29;;;;;;;1.95;0.93;;;;;;;-148.56;100.00;61375.16;5007970;28;20439;-33
2022/06/19 07:20:55;;;;;;;1.10;0.70;;;;;;;-148.56;100.00;61375.16;5008269;28;20029;-31
2022/06/19 07:23:20;;;;;;;3.40;1.10;;;;;;;-148.56;100.00;61375.16;5004629;28;20041;-33
2022/06/19 07:25:46;;;;;;;2.00;0.80;;;;;;;-148.56;100.00;61375.16;5007426;28;20072;-31
2022/06/19 07:28:14;;;;;;;1.52;0.77;;;;;;;-148.56;100.00;61375.16;5009678;28;20045;-30
2022/06/19 07:30:39;;;;;;;3.47;1.00;;;;;;;-148.56;100.00;61375.16;5005280;28;20957;-28
2022/06/19 07:33:04;;;;;;;2.85;1.20;;;;;;;-148.56;100.00;61375.16;5006685;28;20032;-34
2022/06/19 07:35:30;;;;;;;2.13;0.90;;;;;;;-148.56;100.00;61375.16;5006078;28;20199;-30
2022/06/19 07:37:55;;;;;;;2.95;0.80;;;;;;;-148.56;100.00;61375.16;5006763;28;20594;-29
2022/06/19 07:40:21;;;;;;;5.80;1.00;;;;;;;-148.56;100.00;61375.16;5005468;28;20912;-31
2022/06/19 07:42:46;;;;;;;1.58;0.80;;;;;;;-148.56;100.00;61375.16;5008884;28;20060;-30
2022/06/19 07:45:12;;;;;;;2.60;0.95;;;;;;;-148.56;100.00;61375.16;5000408;28;20033;-32
2022/06/19 07:50:23;;;;;;;2.38;0.90;;;;;;;-148.56;100.00;61375.16;5009874;28;20261;-31
2022/06/19 07:52:49;;;;;;;1.58;0.73;;;;;;;-148.56;100.00;61375.16;5009082;28;20647;-32
2022/06/19 07:55:25;;;;;;;1.15;0.70;;;;;;;-148.56;100.00;61375.16;5012251;28;20482;-30
2022/06/19 07:57:51;;;;;;;2.25;1.00;;;;;;;-148.56;100.00;61375.16;5009506;28;20040;-30
2022/06/19 08:00:25;;;;;;;2.05;1.13;;;;;;;-148.56;100.00;61375.16;5006461;28;20041;-30
2022/06/19 08:02:51;;;;;;;1.42;0.80;;;;;;;-148.56;100.00;61375.16;5010394;28;20025;-32
2022/06/19 08:05:18;;;;;;;2.30;0.95;;;;;;;-148.56;100.00;61375.16;5008689;28;20476;-30
2022/06/19 08:07:43;;;;;;;1.75;0.80;;;;;;;-148.56;100.00;61375.16;5013464;28;20026;-31
2022/06/19 08:10:11;;;;;;;2.67;1.15;;;;;;;-148.56;100.00;61375.16;5009541;28;20034;-31
2022/06/19 08:12:37;;;;;;;2.88;0.95;;;;;;;-148.56;100.00;61375.16;4997604;28;20448;-32
2022/06/19 08:15:02;;;;;;;1.55;0.70;;;;;;;-148.56;100.00;61375.16;4982670;28;20064;-34
2022/06/19 08:17:28;;;;;;;2.78;0.95;;;;;;;-148.56;100.00;61375.16;4984784;28;20022;-34
2022/06/19 08:19:53;;;;;;;12.18;1.02;;;;;;;-148.56;100.00;61375.16;4986559;28;20125;-33
2022/06/19 08:22:18;;;;;;;2.70;0.85;;;;;;;-148.56;100.00;61375.16;4982033;28;20041;-31
2022/06/19 08:24:44;;;;;;;1.70;0.82;;;;;;;-148.56;100.00;61375.16;4982274;28;20788;-37
2022/06/19 08:27:09;;;;;;;1.40;0.70;;;;;;;-148.56;100.00;61375.16;4985790;28;20156;-33
2022/06/19 08:29:35;;;;;;;2.42;1.38;;;;;;;-148.56;100.00;61375.16;4986310;28;20037;-31
2022/06/19 08:32:00;;;;;;;5.03;1.70;;;;;;;-148.56;100.00;61375.16;4986350;28;20029;-37
2022/06/19 08:34:27;;;;;;;5.30;1.90;;;;;;;-148.56;100.00;61375.16;4982543;28;20033;-32
2022/06/19 08:36:52;;;;;;;5.65;2.40;;;;;;;-148.56;100.00;61375.16;4983048;28;20030;-32
2022/06/19 08:39:18;;;;;;;6.15;2.42;;;;;;;-148.56;100.00;61375.16;4986937;28;20121;-32
2022/06/19 08:41:55;;;;;;;9.10;2.40;;;;;;;-148.56;100.00;61375.16;4987937;28;20029;-31
2022/06/19 08:44:23;;;;;;;6.95;2.38;;;;;;;-148.56;100.00;61375.16;4984635;28;20086;-32
2022/06/19 08:47:04;;;;;;;8.95;2.42;;;;;;;-148.56;100.00;61375.16;4977903;28;20033;-37
2022/06/19 08:49:41;;;;;;;4.97;2.20;;;;;;;-148.56;100.00;61375.16;4984948;28;20470;-35
2022/06/19 08:52:32;;;;;;;10.77;2.40;;;;;;;-148.56;100.00;61375.16;4985305;28;20088;-35
2022/06/19 08:55:04;;;;;;;6.57;2.50;;;;;;;-148.56;100.00;61375.16;4966107;28;20214;-31
2022/06/19 08:57:38;;;;;;;;;;;;;;;-148.56;100.00;61375.16;4988756;28;20316;-35
2022/06/19 09:00:12;;;;;;;5.88;2.33;;;;;;;-148.56;100.00;61375.16;4978410;28;19929;-34
2022/06/19 09:02:41;;;;;;;5.22;2.35;;;;;;;-148.56;100.00;61375.16;4979884;28;20043;-31
2022/06/19 09:05:48;;;;;;;8.50;2.40;;;;;;;-148.56;100.00;61375.16;4985669;28;20084;-36
2022/06/19 09:08:45;;;;;;;5.18;2.70;;;;;;;-148.56;100.00;61375.16;4943675;28;20100;-33
2022/06/19 09:11:31;;;;;;;6.55;2.40;;;;;;;-148.56;100.00;61375.16;4983705;28;21599;-33
2022/06/19 09:14:25;;;;;;;6.07;2.70;;;;;;;-148.56;100.00;61375.16;5008502;28;20701;-30
2022/06/19 09:16:54;;;;;;;3.67;2.20;;;;;;;-148.56;100.00;61375.16;5005986;28;20035;-30
2022/06/19 09:19:44;;;;;;;3.60;2.38;;;;;;;-148.56;100.00;61375.16;5010769;28;20033;-32
2022/06/19 09:22:12;;;;;;;4.30;2.33;;;;;;;-148.56;100.00;61375.16;5006743;28;20139;-30
2022/06/19 09:25:15;;;;;;;6.55;2.60;;;;;;;-148.56;100.00;61375.16;5006295;28;20072;-30
2022/06/19 09:27:52;;;;;;;5.40;2.33;;;;;;;-148.56;100.00;61375.16;5006995;28;20121;-31
2022/06/19 09:30:26;;;;;;;4.07;2.50;;;;;;;-148.56;100.00;61375.16;4988737;28;20068;-32
2022/06/19 09:32:55;;;;;;;3.95;2.05;;;;;;;-148.56;100.00;61375.16;5006343;28;20029;-30
2022/06/19 09:35:34;;;;;;;3.65;2.17;;;;;;;-148.56;100.00;61375.16;5004293;28;20034;-31
2022/06/19 09:38:08;;;;;;;4.22;2.13;;;;;;;-148.56;100.00;61375.16;5005844;28;20045;-30
2022/06/19 09:40:40;;;;;;;5.93;2.22;;;;;;;-148.56;100.00;61375.16;5007979;28;20029;-29
2022/06/19 09:43:15;;;;;;;3.80;2.15;;;;;;;-148.56;100.00;61375.16;5009328;28;20108;-31
2022/06/19 09:46:10;;;;;;;5.15;2.20;;;;;;;-148.56;100.00;61375.16;5002861;28;20065;-31
2022/06/19 09:48:42;;;;;;;3.42;2.20;;;;;;;-148.56;100.00;61375.16;4995635;28;20068;-34
2022/06/19 09:51:15;;;;;;;5.60;2.45;;;;;;;-148.56;100.00;61375.16;5010517;28;20112;-36
2022/06/19 09:53:59;;;;;;;7.60;2.65;;;;;;;-148.56;100.00;61375.16;5007532;28;20039;-31
2022/06/19 09:56:39;;;;;;;2.85;2.03;;;;;;;-148.56;100.00;61375.16;5009442;28;20037;-29
2022/06/19 09:59:28;;;;;;;2.90;1.90;;;;;;;-148.56;100.00;61375.16;5008219;28;20070;-31
2022/06/19 10:01:58;;;;;;;6.53;2.40;;;;;;;-148.56;100.00;61375.16;5007752;28;20122;-29
2022/06/19 10:04:43;;;;;;;3.75;2.10;;;;;;;-148.56;100.00;61375.16;4990700;28;20045;-34
2022/06/19 10:07:24;;;;;;;5.22;2.40;;;;;;;-148.56;100.00;61375.16;5008728;28;20507;-29
2022/06/19 10:10:21;;;;;;;2.88;2.13;;;;;;;-148.56;100.00;61375.16;5008667;28;20104;-30
2022/06/19 10:12:47;;;;;;;4.00;2.13;;;;;;;-148.56;100.00;61375.16;5000753;28;20037;-29
2022/06/19 10:15:20;;;;;;;4.20;1.92;;;;;;;-148.56;100.00;61375.16;5006841;28;20037;-30
2022/06/19 10:18:01;;;;;;;4.70;2.17;;;;;;;-148.56;100.00;61375.16;5007758;28;20032;-29
2022/06/19 10:20:36;;;;;;;3.95;2.10;;;;;;;-148.56;100.00;61375.16;5007741;28;20024;-32
2022/06/19 10:23:07;;;;;;;3.35;2.00;;;;;;;-148.56;100.00;61375.16;5002896;28;20044;-34
2022/06/19 10:25:54;;;;;;;;;;;;;;;-148.56;100.00;61375.16;5007203;28;20036;-31
2022/06/19 10:28:38;;;;;;;4.68;2.30;;;;;;;-148.56;100.00;61375.16;5003706;28;19928;-31
2022/06/19 10:31:30;;;;;;;5.18;2.10;;;;;;;-148.56;100.00;61375.16;5003986;28;20040;-31
2022/06/19 10:34:33;;;;;;;4.28;2.08;;;;;;;-148.56;100.00;61375.16;5004590;28;21438;-32
2022/06/19 10:37:13;;;;;;;3.83;2.00;;;;;;;-148.56;100.00;61375.16;5005826;28;20033;-32
2022/06/19 10:39:51;;;;;;;6.22;2.40;;;;;;;-148.56;100.00;61375.16;5006020;28;20030;-31
2022/06/19 10:42:34;;;;;;;3.45;1.95;;;;;;;-148.56;100.00;61375.16;5004485;28;20088;-30
2022/06/19 10:45:27;;;;;;;3.33;2.00;;;;;;;-148.56;100.00;61375.16;5004578;28;20048;-32
2022/06/19 10:47:57;;;;;;;2.88;1.90;;;;;;;-148.56;100.00;61375.16;5007197;28;20158;-32
2022/06/19 10:50:43;;;;;;;2.33;2.13;;;;;;;-148.56;100.00;61375.16;5003819;28;20153;-31
2022/06/19 10:53:20;;;;;;;4.07;1.90;;;;;;;-148.56;100.00;61375.16;5007110;28;20052;-32
2022/06/19 10:55:49;;;;;;;4.68;2.05;;;;;;;-148.56;100.00;61375.16;5007018;28;20057;-33
2022/06/19 10:58:21;;;;;;;2.72;2.05;;;;;;;-148.56;100.00;61375.16;5007549;28;20045;-32
2022/06/19 11:00:51;;;;;;;3.83;1.90;;;;;;;-148.56;100.00;61375.16;5006500;28;20038;-31
2022/06/19 11:06:48;;;;;;;4.18;2.03;;;;;;;-148.56;100.00;61375.16;5004356;28;20496;-34
2022/06/19 11:09:20;;;;;;;2.95;1.95;;;;;;;-148.56;100.00;61375.16;5024030;28;20029;-31
2022/06/19 11:11:46;;;;;;;3.53;2.30;;;;;;;-148.56;100.00;61375.16;5005231;28;20028;-30
2022/06/19 11:14:29;;;;;;;3.53;2.05;;;;;;;-148.56;100.00;61375.16;5010999;28;20037;-33
2022/06/19 11:17:00;;;;;;;3.15;1.80;;;;;;;-148.56;100.00;61375.16;4993716;28;20029;-34
2022/06/19 11:19:31;;;;;;;3.30;1.98;;;;;;;-148.56;100.00;61375.16;5006756;28;20137;-31
2022/06/19 11:21:56;;;;;;;2.25;2.00;;;;;;;-148.56;100.00;61375.16;5009339;28;20041;-30
2022/06/19 11:24:26;;;;;;;3.80;1.92;;;;;;;-148.56;100.00;61375.16;5014485;28;20553;-34